createdAt,value
2023-02-14T00:01:10.626Z,67.28
2023-02-14T00:03:39.417Z,66.82
2023-02-14T00:06:07.960Z,64.35
2023-02-14T00:08:35.791Z,71.65
2023-02-14T00:11:04.309Z,70.28
2023-02-14T00:13:31.674Z,68.47
2023-02-14T00:15:59.037Z,72.32
2023-02-14T00:18:45.386Z,67.57
2023-02-14T00:21:12.717Z,68.35
2023-02-14T00:23:40.074Z,68.80
2023-02-14T00:26:14.193Z,70.10
2023-02-14T00:28:43.398Z,69.93
2023-02-14T00:31:11.151Z,68.95
2023-02-14T00:33:38.572Z,67.07
2023-02-14T00:36:07.533Z,72.50
2023-02-14T00:38:35.238Z,77.80
2023-02-14T00:41:03.210Z,70.28
2023-02-14T00:43:30.796Z,70.63
2023-02-14T00:45:58.106Z,70.45
2023-02-14T00:48:25.660Z,70.38
2023-02-14T00:50:52.986Z,68.78
2023-02-14T00:53:20.501Z,76.53
2023-02-14T00:55:47.848Z,69.78
2023-02-14T00:58:15.564Z,71.40
2023-02-14T01:00:42.885Z,69.93
2023-02-14T01:03:10.246Z,69.32
2023-02-14T01:05:37.512Z,69.03
2023-02-14T01:08:05.419Z,71.00
2023-02-14T01:10:32.695Z,76.57
2023-02-14T01:13:00.004Z,75.43
2023-02-14T01:15:28.718Z,73.72
2023-02-14T01:17:56.145Z,69.07
2023-02-14T01:20:23.376Z,76.18
2023-02-14T01:22:50.646Z,74.45
2023-02-14T01:25:18.163Z,69.25
2023-02-14T01:27:45.501Z,74.53
2023-02-14T01:30:14.551Z,73.25
2023-02-14T01:32:42.474Z,73.03
2023-02-14T01:35:10.467Z,75.47
2023-02-14T01:37:37.797Z,76.97
2023-02-14T01:40:08.332Z,73.50
2023-02-14T01:42:36.246Z,71.15
2023-02-14T01:45:08.931Z,74.97
2023-02-14T01:47:39.277Z,79.65
2023-02-14T01:50:13.885Z,75.03
2023-02-14T01:52:47.965Z,80.47
2023-02-14T01:55:28.612Z,77.22
2023-02-14T01:58:01.542Z,77.78
2023-02-14T02:00:47.594Z,74.55
2023-02-14T02:03:16.808Z,76.10
2023-02-14T02:05:52.585Z,78.50
2023-02-14T02:08:20.414Z,77.10
2023-02-14T02:10:47.616Z,74.30
2023-02-14T02:13:18.047Z,76.13
2023-02-14T02:16:03.355Z,80.85
2023-02-14T02:19:17.275Z,76.65
2023-02-14T02:21:59.680Z,84.82
2023-02-14T02:24:30.003Z,78.90
2023-02-14T02:27:22.055Z,73.00
2023-02-14T02:30:25.152Z,78.85
2023-02-14T02:32:53.665Z,79.35
2023-02-14T02:35:42.015Z,80.57
2023-02-14T02:38:36.893Z,81.78
2023-02-14T02:41:18.573Z,77.80
2023-02-14T02:44:13.053Z,82.20
2023-02-14T02:46:55.665Z,78.13
2023-02-14T02:49:48.314Z,81.20
2023-02-14T02:52:41.642Z,86.35
2023-02-14T02:55:16.407Z,83.05
2023-02-14T02:57:44.473Z,83.88
2023-02-14T03:00:13.690Z,81.55
2023-02-14T03:03:03.753Z,82.80
2023-02-14T03:05:32.355Z,82.80
2023-02-14T03:07:59.780Z,82.25
2023-02-14T03:10:31.805Z,85.28
2023-02-14T03:13:36.778Z,80.78
2023-02-14T03:16:26.167Z,80.30
2023-02-14T03:20:00.471Z,80.85
2023-02-14T03:22:48.498Z,79.60
2023-02-14T03:25:32.288Z,86.32
2023-02-14T03:28:15.182Z,89.43
2023-02-14T03:30:48.548Z,80.32
2023-02-14T03:33:23.193Z,76.68
2023-02-14T03:35:55.249Z,81.13
2023-02-14T03:38:27.527Z,81.78
2023-02-14T03:41:01.935Z,81.55
2023-02-14T03:43:35.917Z,82.20
2023-02-14T03:46:03.272Z,84.18
2023-02-14T03:48:32.311Z,81.05
2023-02-14T03:51:00.657Z,79.57
2023-02-14T03:53:31.020Z,79.57
2023-02-14T03:56:13.390Z,85.00
2023-02-14T03:58:45.188Z,87.72
2023-02-14T04:01:36.170Z,85.05
2023-02-14T04:04:04.677Z,84.45
2023-02-14T04:06:31.969Z,81.15
2023-02-14T04:08:59.399Z,82.63
2023-02-14T04:11:27.270Z,81.28
2023-02-14T04:13:54.810Z,81.07
2023-02-14T04:16:22.147Z,76.30
2023-02-14T04:19:08.078Z,81.15
2023-02-14T04:21:35.375Z,83.13
2023-02-14T04:24:02.711Z,78.80
2023-02-14T04:26:30.129Z,81.63
2023-02-14T04:28:57.558Z,81.28
2023-02-14T04:31:24.971Z,80.25
2023-02-14T04:33:52.344Z,78.03
2023-02-14T04:36:19.686Z,82.00
2023-02-14T04:38:46.957Z,83.50
2023-02-14T04:41:14.316Z,83.18
2023-02-14T04:43:43.106Z,78.47
2023-02-14T04:46:10.574Z,79.00
2023-02-14T04:48:37.902Z,80.95
2023-02-14T04:51:05.359Z,79.53
2023-02-14T04:53:32.618Z,84.45
2023-02-14T04:56:00.002Z,78.07
2023-02-14T04:58:27.465Z,78.68
2023-02-14T05:00:54.809Z,80.25
2023-02-14T05:03:22.108Z,80.68
2023-02-14T05:05:49.501Z,78.72
2023-02-14T05:08:17.049Z,80.65
2023-02-14T05:10:44.326Z,77.72
2023-02-14T05:13:11.719Z,78.93
2023-02-14T05:15:38.960Z,79.53
2023-02-14T05:18:06.447Z,80.38
2023-02-14T05:20:34.223Z,84.07
2023-02-14T05:23:06.346Z,77.07
2023-02-14T05:25:34.356Z,81.13
2023-02-14T05:28:01.877Z,79.70
2023-02-14T05:30:30.339Z,79.47
2023-02-14T05:32:57.787Z,74.32
2023-02-14T05:35:25.202Z,86.05
2023-02-14T05:37:52.501Z,84.43
2023-02-14T05:40:19.918Z,82.95
2023-02-14T05:42:47.153Z,85.00
2023-02-14T05:45:14.713Z,81.82
2023-02-14T05:47:42.097Z,76.15
2023-02-14T05:50:09.525Z,81.65
2023-02-14T05:52:37.792Z,79.85
2023-02-14T05:55:05.632Z,86.15
2023-02-14T05:57:36.030Z,86.13
2023-02-14T06:00:06.540Z,88.85
2023-02-14T06:02:39.750Z,90.55
2023-02-14T06:05:07.712Z,82.35
2023-02-14T06:07:35.152Z,91.15
2023-02-14T06:10:02.488Z,90.72
2023-02-14T06:12:32.973Z,89.28
2023-02-14T06:15:00.357Z,92.15
2023-02-14T06:17:27.738Z,86.13
2023-02-14T06:19:54.995Z,88.00
2023-02-14T06:22:22.316Z,89.03
2023-02-14T06:24:50.014Z,93.40
2023-02-14T06:27:17.320Z,89.10
2023-02-14T06:29:44.683Z,89.13
2023-02-14T06:32:12.132Z,86.63
2023-02-14T06:34:40.918Z,89.28
2023-02-14T06:37:08.241Z,87.22
2023-02-14T06:39:35.593Z,88.53
2023-02-14T06:42:02.941Z,90.30
2023-02-14T06:44:30.446Z,87.22
2023-02-14T06:46:57.724Z,92.45
2023-02-14T06:49:25.158Z,91.20
2023-02-14T06:51:52.602Z,85.15
2023-02-14T06:54:19.886Z,93.20
2023-02-14T06:56:47.480Z,92.05
2023-02-14T06:59:14.825Z,99.57
2023-02-14T07:01:42.174Z,93.07
2023-02-14T07:04:09.676Z,97.20
2023-02-14T07:06:37.753Z,94.22
2023-02-14T07:09:05.574Z,92.07
2023-02-14T07:11:32.979Z,95.30
2023-02-14T07:14:00.296Z,91.35
2023-02-14T07:16:27.672Z,93.00
2023-02-14T07:18:54.987Z,89.18
2023-02-14T07:21:22.324Z,91.65
2023-02-14T07:23:50.195Z,92.30
2023-02-14T07:26:18.344Z,99.80
2023-02-14T07:28:46.712Z,91.78
2023-02-14T07:31:14.192Z,96.07
2023-02-14T07:33:41.817Z,91.03
2023-02-14T07:36:09.675Z,96.47
2023-02-14T07:38:37.269Z,105.60
2023-02-14T07:41:04.694Z,150.25
2023-02-14T07:43:34.490Z,112.15
2023-02-14T07:46:02.468Z,96.68
2023-02-14T07:48:31.953Z,98.68
2023-02-14T07:51:01.863Z,110.30
2023-02-14T07:53:29.272Z,102.45
2023-02-14T07:55:56.855Z,97.57
2023-02-14T07:58:24.141Z,96.82
2023-02-14T08:00:51.477Z,103.28
2023-02-14T08:03:19.134Z,99.20
2023-02-14T08:05:57.056Z,107.60
2023-02-14T08:08:28.908Z,96.38
2023-02-14T08:10:57.001Z,92.40
2023-02-14T08:13:24.345Z,95.20
2023-02-14T08:16:07.740Z,94.13
2023-02-14T08:18:37.942Z,104.40
2023-02-14T08:23:33.879Z,99.05
2023-02-14T08:26:01.664Z,103.43
2023-02-14T08:28:29.253Z,107.07
2023-02-14T08:30:56.668Z,101.75
2023-02-14T08:33:24.057Z,110.00
2023-02-14T08:35:52.210Z,97.55
2023-02-14T08:38:19.599Z,108.40
2023-02-14T08:40:47.381Z,104.68
2023-02-14T08:43:15.349Z,105.95
2023-02-14T08:45:43.019Z,108.18
2023-02-14T08:48:12.241Z,101.85
2023-02-14T08:50:40.285Z,103.00
2023-02-14T08:53:12.257Z,103.03
2023-02-14T08:55:40.228Z,99.22
2023-02-14T08:58:07.928Z,106.97
2023-02-14T09:00:35.560Z,106.47
2023-02-14T09:03:03.032Z,116.63
2023-02-14T09:05:32.018Z,102.75
2023-02-14T09:07:59.674Z,102.28
2023-02-14T09:10:28.559Z,100.95
2023-02-14T09:12:58.560Z,101.55
2023-02-14T09:15:26.435Z,106.50
2023-02-14T09:17:53.743Z,99.45
2023-02-14T09:20:25.274Z,105.30
2023-02-14T09:22:55.860Z,104.07
2023-02-14T09:25:26.254Z,101.20
2023-02-14T09:27:53.694Z,98.03
2023-02-14T09:30:21.232Z,104.13
2023-02-14T09:32:48.887Z,89.18
2023-02-14T09:35:34.710Z,110.32
2023-02-14T09:38:18.310Z,103.50
2023-02-14T09:40:47.054Z,106.68
2023-02-14T09:43:24.691Z,104.63
2023-02-14T09:45:54.864Z,107.70
2023-02-14T09:48:32.470Z,105.03
2023-02-14T09:51:03.361Z,97.47
2023-02-14T09:53:35.092Z,107.28
2023-02-14T09:56:21.151Z,106.82
2023-02-14T09:59:07.368Z,105.18
2023-02-14T10:01:43.714Z,106.32
2023-02-14T10:04:23.018Z,108.03
2023-02-14T10:07:01.732Z,107.63
2023-02-14T10:09:43.095Z,105.10
2023-02-14T10:12:16.666Z,96.40
2023-02-14T10:14:44.114Z,98.35
2023-02-14T10:17:25.324Z,100.75
2023-02-14T10:19:56.649Z,98.22
2023-02-14T10:22:30.225Z,94.32
2023-02-14T10:25:14.425Z,93.97
2023-02-14T10:27:47.286Z,98.50
2023-02-14T10:30:21.573Z,92.35
2023-02-14T10:32:53.583Z,97.70
2023-02-14T10:35:44.116Z,99.72
2023-02-14T10:38:20.602Z,101.93
2023-02-14T10:41:10.151Z,94.28
2023-02-14T10:43:43.747Z,99.38
2023-02-14T10:46:21.268Z,99.60
2023-02-14T10:49:13.402Z,101.47
2023-02-14T10:51:51.232Z,94.93
2023-02-14T10:54:25.977Z,97.78
2023-02-14T10:56:58.699Z,101.85
2023-02-14T10:59:39.780Z,105.95
2023-02-14T11:02:11.155Z,98.13
2023-02-14T11:04:38.495Z,98.18
2023-02-14T11:07:13.081Z,97.70
2023-02-14T11:09:40.337Z,92.57
2023-02-14T11:12:08.724Z,91.97
2023-02-14T11:14:40.563Z,99.55
2023-02-14T11:17:28.153Z,95.18
2023-02-14T11:20:02.590Z,97.60
2023-02-14T11:22:31.282Z,88.70
2023-02-14T11:25:21.508Z,88.13
2023-02-14T11:28:00.994Z,81.35
2023-02-14T11:30:33.450Z,90.00
2023-02-14T11:33:01.109Z,84.32
2023-02-14T11:35:34.550Z,84.95
2023-02-14T11:38:06.704Z,82.95
2023-02-14T11:40:38.932Z,79.85
2023-02-14T11:43:14.622Z,85.40
2023-02-14T11:45:49.447Z,76.88
2023-02-14T11:48:31.434Z,77.60
2023-02-14T11:51:15.912Z,77.88
2023-02-14T11:53:56.343Z,76.95
2023-02-14T11:56:24.327Z,78.13
2023-02-14T11:59:03.779Z,80.50
2023-02-14T12:01:33.918Z,73.35
2023-02-14T12:06:32.478Z,78.72
2023-02-14T12:09:35.173Z,74.55
2023-02-14T12:12:05.020Z,73.30
2023-02-14T12:14:34.464Z,70.93
2023-02-14T12:17:05.818Z,72.35
2023-02-14T12:19:41.167Z,70.47
2023-02-14T12:22:13.298Z,66.53
2023-02-14T12:25:07.576Z,63.97
2023-02-14T12:27:48.459Z,65.70
2023-02-14T12:30:21.367Z,61.78
2023-02-14T12:32:51.312Z,68.15
2023-02-14T12:35:25.815Z,65.03
2023-02-14T12:38:19.346Z,62.47
2023-02-14T12:41:11.882Z,62.03
2023-02-14T12:43:50.875Z,63.95
2023-02-14T12:46:37.079Z,58.63
2023-02-14T12:49:36.369Z,61.15
2023-02-14T12:52:25.475Z,63.67
2023-02-14T12:54:55.762Z,66.45
2023-02-14T12:57:48.076Z,61.50
2023-02-14T13:00:33.997Z,60.75
2023-02-14T13:03:14.679Z,62.60
2023-02-14T13:05:48.250Z,59.72
2023-02-14T13:08:49.374Z,60.38
2023-02-14T13:11:41.054Z,61.15
2023-02-14T13:14:29.616Z,59.88
2023-02-14T13:17:00.860Z,62.35
2023-02-14T13:19:31.228Z,59.53
2023-02-14T13:21:59.906Z,61.33
2023-02-14T13:24:36.813Z,56.83
2023-02-14T13:27:07.415Z,57.15
2023-02-14T13:29:43.275Z,56.08
2023-02-14T13:32:13.305Z,60.67
2023-02-14T13:37:16.016Z,59.95
2023-02-14T13:39:47.229Z,58.05
2023-02-14T13:42:52.642Z,57.63
2023-02-14T13:45:35.303Z,59.95
2023-02-14T13:48:11.122Z,57.78
2023-02-14T13:51:05.626Z,61.60
2023-02-14T13:53:40.200Z,61.90
2023-02-14T13:56:15.336Z,57.58
2023-02-14T13:58:51.127Z,54.55
2023-02-14T14:01:42.922Z,55.25
2023-02-14T14:04:28.826Z,53.50
2023-02-14T14:07:05.347Z,53.40
2023-02-14T14:09:42.004Z,55.85
2023-02-14T14:12:25.585Z,51.60
2023-02-14T14:15:05.767Z,55.22
2023-02-14T14:17:39.419Z,56.35
2023-02-14T14:20:15.781Z,50.35
2023-02-14T14:22:53.733Z,49.83
2023-02-14T14:25:41.118Z,53.65
2023-02-14T14:28:13.350Z,52.13
2023-02-14T14:30:44.747Z,52.30
2023-02-14T14:33:25.979Z,56.85
2023-02-14T14:36:08.467Z,48.80
2023-02-14T14:38:47.189Z,57.90
2023-02-14T14:41:14.591Z,49.90
2023-02-14T14:43:42.352Z,51.38
2023-02-14T14:46:12.645Z,52.13
2023-02-14T14:51:09.868Z,50.13
2023-02-14T14:53:44.541Z,50.42
2023-02-14T14:56:14.356Z,51.42
2023-02-14T14:58:42.111Z,48.90
2023-02-14T15:01:36.436Z,47.80
2023-02-14T15:04:17.262Z,49.70
2023-02-14T15:06:45.437Z,50.20
2023-02-14T15:09:45.079Z,50.03
2023-02-14T15:12:39.971Z,49.70
2023-02-14T15:15:10.119Z,47.63
2023-02-14T15:20:08.402Z,48.05
2023-02-14T15:22:45.613Z,46.10
2023-02-14T15:25:21.226Z,43.42
2023-02-14T15:27:48.711Z,45.20
2023-02-14T15:30:19.414Z,45.45
2023-02-14T15:32:48.262Z,42.40
2023-02-14T15:35:17.579Z,47.83
2023-02-14T15:37:46.039Z,44.17
2023-02-14T15:40:25.090Z,45.83
2023-02-14T15:42:59.052Z,43.35
2023-02-14T15:45:27.687Z,40.70
2023-02-14T15:47:57.896Z,43.15
2023-02-14T15:53:27.896Z,50.67
2023-02-14T15:56:05.791Z,49.17
2023-02-14T15:58:33.649Z,52.35
2023-02-14T16:01:01.495Z,45.75
2023-02-14T16:03:37.054Z,49.55
2023-02-14T16:06:07.483Z,55.03
2023-02-14T16:08:37.341Z,50.67
2023-02-14T16:11:07.159Z,53.60
2023-02-14T16:13:36.803Z,52.92
2023-02-14T16:16:06.741Z,48.85
2023-02-14T16:18:48.198Z,47.97
2023-02-14T16:21:33.240Z,47.72
2023-02-14T16:24:09.361Z,46.42
2023-02-14T16:26:39.318Z,52.40
2023-02-14T16:29:08.500Z,47.90
2023-02-14T16:32:15.195Z,46.63
2023-02-14T16:34:42.258Z,48.90
2023-02-14T16:37:19.509Z,51.00
2023-02-14T16:39:47.117Z,53.45
2023-02-14T16:42:17.008Z,51.17
2023-02-14T16:44:45.769Z,50.55
2023-02-14T16:47:14.020Z,47.83
2023-02-14T16:49:41.984Z,45.90
2023-02-14T16:52:35.535Z,51.83
2023-02-14T16:55:02.820Z,47.33
2023-02-14T16:57:33.397Z,54.58
2023-02-14T17:00:01.363Z,55.42
2023-02-14T17:02:28.846Z,49.50
2023-02-14T17:04:56.506Z,51.65
2023-02-14T17:07:23.905Z,49.15
2023-02-14T17:09:55.538Z,49.45
2023-02-14T17:12:25.634Z,47.83
2023-02-14T17:14:55.732Z,52.10
2023-02-14T17:19:52.654Z,48.97
2023-02-14T17:22:20.671Z,52.05
2023-02-14T17:24:48.144Z,45.60
2023-02-14T17:27:15.587Z,48.05
2023-02-14T17:29:42.888Z,49.88
2023-02-14T17:32:14.088Z,47.45
2023-02-14T17:34:41.709Z,57.63
2023-02-14T17:37:09.098Z,52.92
2023-02-14T17:39:36.444Z,47.67
2023-02-14T17:42:03.865Z,48.00
2023-02-14T17:44:36.011Z,45.15
2023-02-14T17:47:04.917Z,49.38
2023-02-14T17:49:32.470Z,51.28
2023-02-14T17:51:59.749Z,51.00
2023-02-14T17:54:26.984Z,52.92
2023-02-14T17:56:54.595Z,54.75
2023-02-14T17:59:21.979Z,50.47
2023-02-14T18:01:50.131Z,51.30
2023-02-14T18:04:17.432Z,52.40
2023-02-14T18:06:44.834Z,53.13
2023-02-14T18:09:12.166Z,51.25
2023-02-14T18:11:40.414Z,55.45
2023-02-14T18:14:08.370Z,56.83
2023-02-14T18:16:38.038Z,56.53
2023-02-14T18:19:06.844Z,64.03
2023-02-14T18:21:36.041Z,56.65
2023-02-14T18:24:04.025Z,62.65
2023-02-14T18:26:31.551Z,87.57
2023-02-14T18:28:59.341Z,55.08
2023-02-14T18:31:26.787Z,57.83
2023-02-14T18:33:55.096Z,55.28
2023-02-14T18:36:24.349Z,57.10
2023-02-14T18:38:52.040Z,48.53
2023-02-14T18:41:19.828Z,52.75
2023-02-14T18:43:48.929Z,58.83
2023-02-14T18:46:27.476Z,54.78
2023-02-14T18:48:56.241Z,55.67
2023-02-14T18:51:30.062Z,59.92
2023-02-14T18:53:59.558Z,59.47
2023-02-14T18:56:29.915Z,59.42
2023-02-14T18:59:02.515Z,61.78
2023-02-14T19:01:36.838Z,60.88
2023-02-14T19:04:07.763Z,60.42
2023-02-14T19:06:35.942Z,69.43
2023-02-14T19:09:04.100Z,62.55
2023-02-14T19:11:31.791Z,68.82
2023-02-14T19:14:00.310Z,62.85
2023-02-14T19:16:32.414Z,63.00
2023-02-14T19:19:02.513Z,62.63
2023-02-14T19:23:58.933Z,74.47
2023-02-14T19:26:29.625Z,65.53
2023-02-14T19:28:59.480Z,70.53
2023-02-14T19:31:27.991Z,70.63
2023-02-14T19:33:55.558Z,69.10
2023-02-14T19:36:23.600Z,66.05
2023-02-14T19:38:52.895Z,64.63
2023-02-14T19:41:26.148Z,72.53
2023-02-14T19:43:56.251Z,66.63
2023-02-14T19:46:24.413Z,68.72
2023-02-14T19:48:52.292Z,64.15
2023-02-14T19:51:25.804Z,70.25
2023-02-14T19:53:55.467Z,70.95
2023-02-14T19:56:25.205Z,72.13
2023-02-14T19:58:53.098Z,69.63
2023-02-14T20:01:26.169Z,69.05
2023-02-14T20:03:53.632Z,67.88
2023-02-14T20:06:22.185Z,67.65
2023-02-14T20:08:50.011Z,62.67
2023-02-14T20:11:36.340Z,67.38
2023-02-14T20:14:04.860Z,63.15
2023-02-14T20:16:33.888Z,65.05
2023-02-14T20:19:07.945Z,61.13
2023-02-14T20:21:37.953Z,64.18
2023-02-14T20:24:06.185Z,63.33
2023-02-14T20:26:35.016Z,52.88
2023-02-14T20:29:04.208Z,62.00
2023-02-14T20:31:33.209Z,63.47
2023-02-14T20:34:00.987Z,62.55
2023-02-14T20:36:28.971Z,60.65
2023-02-14T20:38:57.192Z,60.08
2023-02-14T20:41:26.157Z,60.63
2023-02-14T20:43:56.571Z,58.55
2023-02-14T20:46:27.112Z,68.35
2023-02-14T20:48:54.551Z,58.22
2023-02-14T20:51:22.842Z,61.35
2023-02-14T20:53:51.198Z,62.13
2023-02-14T20:56:19.197Z,65.15
2023-02-14T20:58:46.580Z,66.00
2023-02-14T21:01:16.484Z,65.13
2023-02-14T21:03:50.420Z,63.03
2023-02-14T21:06:19.680Z,61.83
2023-02-14T21:08:49.503Z,63.78
2023-02-14T21:11:18.529Z,61.13
2023-02-14T21:13:46.432Z,63.05
2023-02-14T21:16:16.008Z,61.22
2023-02-14T21:18:47.982Z,64.65
2023-02-14T21:21:19.134Z,66.30
2023-02-14T21:23:50.289Z,68.70
2023-02-14T21:26:17.912Z,69.95
2023-02-14T21:28:45.492Z,63.85
2023-02-14T21:31:15.882Z,66.22
2023-02-14T21:33:43.381Z,78.53
2023-02-14T21:36:15.818Z,68.57
2023-02-14T21:38:44.012Z,68.40
2023-02-14T21:41:17.595Z,69.35
2023-02-14T21:43:46.446Z,77.82
2023-02-14T21:46:16.323Z,68.00
2023-02-14T21:49:02.798Z,70.57
2023-02-14T21:51:31.348Z,74.47
2023-02-14T21:54:01.659Z,73.15
2023-02-14T21:56:29.063Z,71.88
2023-02-14T21:58:56.793Z,69.53
2023-02-14T22:01:26.425Z,70.13
2023-02-14T22:03:54.417Z,73.43
2023-02-14T22:06:22.335Z,69.32
2023-02-14T22:08:54.314Z,71.78
2023-02-14T22:11:22.322Z,68.20
2023-02-14T22:13:49.735Z,64.75
2023-02-14T22:16:18.996Z,67.55
2023-02-14T22:18:47.963Z,67.53
2023-02-14T22:21:24.194Z,74.27
2023-02-14T22:23:51.825Z,71.57
2023-02-14T22:26:19.112Z,75.63
2023-02-14T22:28:47.912Z,70.90
2023-02-14T22:31:17.254Z,74.57
2023-02-14T22:33:45.131Z,75.97
2023-02-14T22:36:12.793Z,75.63
2023-02-14T22:38:40.655Z,76.32
2023-02-14T22:41:12.188Z,73.30
2023-02-14T22:43:40.094Z,81.68
2023-02-14T22:46:09.827Z,76.25
2023-02-14T22:48:38.126Z,74.03
2023-02-14T22:51:08.504Z,80.53
2023-02-14T22:53:36.000Z,72.63
2023-02-14T22:56:20.727Z,79.80
2023-02-14T22:58:48.591Z,77.43
2023-02-14T23:01:17.519Z,73.22
2023-02-14T23:03:45.471Z,73.65
2023-02-14T23:06:13.729Z,77.60
2023-02-14T23:08:43.005Z,77.13
2023-02-14T23:11:12.830Z,75.97
2023-02-14T23:13:59.272Z,77.15
2023-02-14T23:16:46.006Z,77.20
2023-02-14T23:19:34.080Z,77.65
2023-02-14T23:22:05.168Z,73.70
2023-02-14T23:24:32.525Z,78.78
2023-02-14T23:27:00.099Z,81.45
2023-02-14T23:29:27.452Z,80.50
2023-02-14T23:31:55.307Z,79.00
2023-02-14T23:34:26.629Z,81.95
2023-02-14T23:36:53.969Z,86.43
2023-02-14T23:39:21.336Z,79.80
2023-02-14T23:41:48.686Z,79.63
2023-02-14T23:44:19.877Z,79.88
2023-02-14T23:46:49.097Z,80.15
2023-02-14T23:49:17.028Z,80.10
2023-02-14T23:51:45.725Z,76.72
2023-02-14T23:54:13.586Z,83.45
2023-02-14T23:56:41.179Z,87.65
2023-02-14T23:59:09.345Z,82.40
